sensor_id;sensor_type;location;lat;lon;timestamp;P1;durP1;ratioP1;P2;durP2;ratioP2
47299;SDS011;33036;51.320;17.234;2022-11-02T00:01:20;37.08;;;21.42;;
47299;SDS011;33036;51.320;17.234;2022-11-02T00:05:23;36.35;;;19.08;;
47299;SDS011;33036;51.320;17.234;2022-11-02T00:09:25;34.85;;;18.65;;
47299;SDS011;33036;51.320;17.234;2022-11-02T00:13:26;42.92;;;21.42;;
47299;SDS011;33036;51.320;17.234;2022-11-02T00:17:27;43.63;;;22.58;;
47299;SDS011;33036;51.320;17.234;2022-11-02T00:21:28;39.00;;;20.05;;
47299;SDS011;33036;51.320;17.234;2022-11-02T00:25:29;41.20;;;20.48;;
47299;SDS011;33036;51.320;17.234;2022-11-02T00:29:30;35.85;;;18.70;;
47299;SDS011;33036;51.320;17.234;2022-11-02T00:33:31;33.58;;;18.30;;
47299;SDS011;33036;51.320;17.234;2022-11-02T00:37:32;39.15;;;18.65;;
47299;SDS011;33036;51.320;17.234;2022-11-02T00:41:33;34.03;;;18.73;;
47299;SDS011;33036;51.320;17.234;2022-11-02T00:45:33;45.17;;;22.00;;
47299;SDS011;33036;51.320;17.234;2022-11-02T00:49:34;42.40;;;21.13;;
47299;SDS011;33036;51.320;17.234;2022-11-02T00:53:35;39.20;;;18.95;;
47299;SDS011;33036;51.320;17.234;2022-11-02T00:57:37;35.45;;;18.75;;
47299;SDS011;33036;51.320;17.234;2022-11-02T01:01:38;30.35;;;17.25;;
47299;SDS011;33036;51.320;17.234;2022-11-02T01:05:39;35.10;;;19.88;;
47299;SDS011;33036;51.320;17.234;2022-11-02T01:09:40;42.08;;;21.67;;
47299;SDS011;33036;51.320;17.234;2022-11-02T01:13:41;51.58;;;25.90;;
47299;SDS011;33036;51.320;17.234;2022-11-02T01:17:42;53.60;;;25.85;;
47299;SDS011;33036;51.320;17.234;2022-11-02T01:21:43;41.40;;;23.17;;
47299;SDS011;33036;51.320;17.234;2022-11-02T01:25:44;36.45;;;19.88;;
47299;SDS011;33036;51.320;17.234;2022-11-02T01:29:46;36.17;;;19.38;;
47299;SDS011;33036;51.320;17.234;2022-11-02T01:33:47;34.67;;;18.25;;
47299;SDS011;33036;51.320;17.234;2022-11-02T01:37:48;37.78;;;16.80;;
47299;SDS011;33036;51.320;17.234;2022-11-02T01:41:52;30.80;;;16.25;;
47299;SDS011;33036;51.320;17.234;2022-11-02T01:46:04;33.67;;;16.25;;
47299;SDS011;33036;51.320;17.234;2022-11-02T01:50:12;30.33;;;16.85;;
47299;SDS011;33036;51.320;17.234;2022-11-02T01:54:21;29.85;;;15.10;;
47299;SDS011;33036;51.320;17.234;2022-11-02T01:58:24;24.90;;;14.52;;
47299;SDS011;33036;51.320;17.234;2022-11-02T02:02:26;31.20;;;14.65;;
47299;SDS011;33036;51.320;17.234;2022-11-02T02:06:27;30.73;;;14.70;;
47299;SDS011;33036;51.320;17.234;2022-11-02T02:10:29;30.52;;;14.40;;
47299;SDS011;33036;51.320;17.234;2022-11-02T02:14:30;32.95;;;16.02;;
47299;SDS011;33036;51.320;17.234;2022-11-02T02:18:33;40.40;;;17.83;;
47299;SDS011;33036;51.320;17.234;2022-11-02T02:31:39;36.15;;;15.93;;
47299;SDS011;33036;51.320;17.234;2022-11-02T02:35:47;33.88;;;16.13;;
47299;SDS011;33036;51.320;17.234;2022-11-02T02:44:09;27.63;;;14.05;;
47299;SDS011;33036;51.320;17.234;2022-11-02T02:48:16;30.48;;;14.07;;
47299;SDS011;33036;51.320;17.234;2022-11-02T02:52:19;27.75;;;13.43;;
47299;SDS011;33036;51.320;17.234;2022-11-02T02:56:21;27.10;;;13.02;;
47299;SDS011;33036;51.320;17.234;2022-11-02T03:00:23;27.65;;;13.80;;
47299;SDS011;33036;51.320;17.234;2022-11-02T03:04:24;24.65;;;11.50;;
47299;SDS011;33036;51.320;17.234;2022-11-02T03:08:25;23.85;;;12.23;;
47299;SDS011;33036;51.320;17.234;2022-11-02T03:25:45;25.40;;;11.05;;
47299;SDS011;33036;51.320;17.234;2022-11-02T03:30:12;22.60;;;11.75;;
47299;SDS011;33036;51.320;17.234;2022-11-02T03:34:23;25.60;;;11.30;;
47299;SDS011;33036;51.320;17.234;2022-11-02T03:38:28;21.70;;;11.18;;
47299;SDS011;33036;51.320;17.234;2022-11-02T03:42:34;23.70;;;11.55;;
47299;SDS011;33036;51.320;17.234;2022-11-02T03:46:36;22.20;;;10.48;;
47299;SDS011;33036;51.320;17.234;2022-11-02T03:50:41;21.75;;;11.82;;
47299;SDS011;33036;51.320;17.234;2022-11-02T03:54:47;20.33;;;11.93;;
47299;SDS011;33036;51.320;17.234;2022-11-02T03:58:52;23.27;;;11.80;;
47299;SDS011;33036;51.320;17.234;2022-11-02T04:02:53;31.85;;;12.60;;
47299;SDS011;33036;51.320;17.234;2022-11-02T04:06:56;21.23;;;10.82;;
47299;SDS011;33036;51.320;17.234;2022-11-02T04:10:57;20.63;;;11.07;;
47299;SDS011;33036;51.320;17.234;2022-11-02T04:15:16;22.20;;;11.90;;
47299;SDS011;33036;51.320;17.234;2022-11-02T04:19:17;27.08;;;11.00;;
47299;SDS011;33036;51.320;17.234;2022-11-02T04:23:27;22.30;;;10.85;;
47299;SDS011;33036;51.320;17.234;2022-11-02T04:27:47;21.05;;;10.40;;
47299;SDS011;33036;51.320;17.234;2022-11-02T04:31:49;16.08;;;9.32;;
47299;SDS011;33036;51.320;17.234;2022-11-02T04:35:51;25.75;;;9.52;;
47299;SDS011;33036;51.320;17.234;2022-11-02T04:39:52;19.88;;;10.55;;
47299;SDS011;33036;51.320;17.234;2022-11-02T04:43:53;23.50;;;10.63;;
47299;SDS011;33036;51.320;17.234;2022-11-02T04:48:07;20.63;;;9.77;;
47299;SDS011;33036;51.320;17.234;2022-11-02T04:52:08;32.03;;;9.95;;
47299;SDS011;33036;51.320;17.234;2022-11-02T04:56:09;18.08;;;9.82;;
47299;SDS011;33036;51.320;17.234;2022-11-02T05:00:10;20.40;;;10.85;;
47299;SDS011;33036;51.320;17.234;2022-11-02T05:04:12;18.08;;;9.63;;
47299;SDS011;33036;51.320;17.234;2022-11-02T05:08:12;19.60;;;10.10;;
47299;SDS011;33036;51.320;17.234;2022-11-02T05:12:13;19.85;;;9.60;;
47299;SDS011;33036;51.320;17.234;2022-11-02T05:16:15;22.75;;;9.95;;
47299;SDS011;33036;51.320;17.234;2022-11-02T05:20:16;22.05;;;8.90;;
47299;SDS011;33036;51.320;17.234;2022-11-02T05:24:17;26.48;;;10.23;;
47299;SDS011;33036;51.320;17.234;2022-11-02T05:28:18;19.88;;;9.02;;
47299;SDS011;33036;51.320;17.234;2022-11-02T05:32:19;18.88;;;8.75;;
47299;SDS011;33036;51.320;17.234;2022-11-02T05:36:20;19.35;;;7.95;;
47299;SDS011;33036;51.320;17.234;2022-11-02T05:40:21;20.10;;;8.30;;
47299;SDS011;33036;51.320;17.234;2022-11-02T05:44:25;18.73;;;8.57;;
47299;SDS011;33036;51.320;17.234;2022-11-02T05:48:26;15.20;;;7.72;;
47299;SDS011;33036;51.320;17.234;2022-11-02T05:52:28;17.30;;;7.65;;
47299;SDS011;33036;51.320;17.234;2022-11-02T05:56:28;17.63;;;8.10;;
47299;SDS011;33036;51.320;17.234;2022-11-02T06:00:30;15.07;;;8.25;;
47299;SDS011;33036;51.320;17.234;2022-11-02T06:04:30;17.20;;;7.65;;
47299;SDS011;33036;51.320;17.234;2022-11-02T06:08:32;15.38;;;8.38;;
47299;SDS011;33036;51.320;17.234;2022-11-02T06:12:34;16.80;;;8.05;;
47299;SDS011;33036;51.320;17.234;2022-11-02T06:16:35;18.23;;;8.10;;
47299;SDS011;33036;51.320;17.234;2022-11-02T06:20:35;16.50;;;8.10;;
47299;SDS011;33036;51.320;17.234;2022-11-02T06:24:37;15.25;;;7.85;;
47299;SDS011;33036;51.320;17.234;2022-11-02T06:28:37;21.95;;;9.95;;
47299;SDS011;33036;51.320;17.234;2022-11-02T06:32:41;20.02;;;9.10;;
47299;SDS011;33036;51.320;17.234;2022-11-02T06:36:47;23.35;;;10.75;;
47299;SDS011;33036;51.320;17.234;2022-11-02T06:40:52;23.80;;;10.80;;
47299;SDS011;33036;51.320;17.234;2022-11-02T06:44:59;29.10;;;10.95;;
47299;SDS011;33036;51.320;17.234;2022-11-02T06:49:02;20.83;;;10.82;;
47299;SDS011;33036;51.320;17.234;2022-11-02T06:53:02;24.10;;;11.38;;
47299;SDS011;33036;51.320;17.234;2022-11-02T06:57:03;23.23;;;10.82;;
47299;SDS011;33036;51.320;17.234;2022-11-02T07:01:05;31.55;;;11.95;;
47299;SDS011;33036;51.320;17.234;2022-11-02T07:05:07;27.35;;;12.18;;
47299;SDS011;33036;51.320;17.234;2022-11-02T07:09:08;21.95;;;11.73;;
47299;SDS011;33036;51.320;17.234;2022-11-02T07:13:09;20.05;;;9.68;;
47299;SDS011;33036;51.320;17.234;2022-11-02T07:17:10;26.27;;;11.65;;
47299;SDS011;33036;51.320;17.234;2022-11-02T07:21:11;21.63;;;10.13;;
47299;SDS011;33036;51.320;17.234;2022-11-02T07:25:12;26.75;;;10.00;;
47299;SDS011;33036;51.320;17.234;2022-11-02T07:29:13;22.70;;;9.73;;
47299;SDS011;33036;51.320;17.234;2022-11-02T07:33:14;21.73;;;10.82;;
47299;SDS011;33036;51.320;17.234;2022-11-02T07:37:15;22.38;;;10.38;;
47299;SDS011;33036;51.320;17.234;2022-11-02T07:41:16;25.83;;;12.23;;
47299;SDS011;33036;51.320;17.234;2022-11-02T07:45:17;21.98;;;10.70;;
47299;SDS011;33036;51.320;17.234;2022-11-02T07:49:18;22.50;;;10.77;;
47299;SDS011;33036;51.320;17.234;2022-11-02T07:53:19;22.70;;;10.43;;
47299;SDS011;33036;51.320;17.234;2022-11-02T07:57:20;24.25;;;10.70;;
47299;SDS011;33036;51.320;17.234;2022-11-02T08:01:21;23.58;;;8.65;;
47299;SDS011;33036;51.320;17.234;2022-11-02T08:05:22;20.60;;;8.65;;
47299;SDS011;33036;51.320;17.234;2022-11-02T08:09:23;19.73;;;7.45;;
47299;SDS011;33036;51.320;17.234;2022-11-02T08:13:42;15.40;;;7.32;;
47299;SDS011;33036;51.320;17.234;2022-11-02T08:17:43;18.65;;;7.60;;
47299;SDS011;33036;51.320;17.234;2022-11-02T08:21:45;13.73;;;7.20;;
47299;SDS011;33036;51.320;17.234;2022-11-02T08:25:46;16.50;;;7.55;;
47299;SDS011;33036;51.320;17.234;2022-11-02T08:29:48;19.50;;;7.63;;
47299;SDS011;33036;51.320;17.234;2022-11-02T08:33:49;15.85;;;8.13;;
47299;SDS011;33036;51.320;17.234;2022-11-02T08:37:54;19.55;;;6.65;;
47299;SDS011;33036;51.320;17.234;2022-11-02T08:41:55;17.73;;;6.28;;
47299;SDS011;33036;51.320;17.234;2022-11-02T08:45:57;18.15;;;6.25;;
47299;SDS011;33036;51.320;17.234;2022-11-02T08:49:59;14.05;;;6.25;;
47299;SDS011;33036;51.320;17.234;2022-11-02T08:54:00;14.98;;;5.97;;
47299;SDS011;33036;51.320;17.234;2022-11-02T08:58:01;16.00;;;6.10;;
47299;SDS011;33036;51.320;17.234;2022-11-02T09:02:02;13.93;;;4.82;;
47299;SDS011;33036;51.320;17.234;2022-11-02T09:06:03;13.85;;;4.10;;
47299;SDS011;33036;51.320;17.234;2022-11-02T09:10:04;11.68;;;4.40;;
47299;SDS011;33036;51.320;17.234;2022-11-02T09:14:06;12.05;;;4.32;;
47299;SDS011;33036;51.320;17.234;2022-11-02T09:18:08;10.20;;;4.15;;
47299;SDS011;33036;51.320;17.234;2022-11-02T09:22:09;17.20;;;4.70;;
47299;SDS011;33036;51.320;17.234;2022-11-02T09:26:10;13.95;;;4.50;;
47299;SDS011;33036;51.320;17.234;2022-11-02T09:30:11;20.25;;;4.32;;
47299;SDS011;33036;51.320;17.234;2022-11-02T09:34:12;14.30;;;4.38;;
47299;SDS011;33036;51.320;17.234;2022-11-02T09:38:14;12.77;;;4.45;;
47299;SDS011;33036;51.320;17.234;2022-11-02T09:42:24;19.20;;;4.60;;
47299;SDS011;33036;51.320;17.234;2022-11-02T09:46:39;17.48;;;4.50;;
47299;SDS011;33036;51.320;17.234;2022-11-02T09:50:44;15.23;;;3.95;;
47299;SDS011;33036;51.320;17.234;2022-11-02T09:54:48;11.68;;;4.03;;
47299;SDS011;33036;51.320;17.234;2022-11-02T09:58:56;16.88;;;4.82;;
47299;SDS011;33036;51.320;17.234;2022-11-02T10:03:08;10.32;;;3.33;;
47299;SDS011;33036;51.320;17.234;2022-11-02T10:11:42;8.48;;;2.95;;
47299;SDS011;33036;51.320;17.234;2022-11-02T10:16:12;14.43;;;3.53;;
47299;SDS011;33036;51.320;17.234;2022-11-02T10:20:22;7.72;;;3.10;;
47299;SDS011;33036;51.320;17.234;2022-11-02T10:28:30;7.70;;;2.92;;
47299;SDS011;33036;51.320;17.234;2022-11-02T10:32:34;13.55;;;3.67;;
47299;SDS011;33036;51.320;17.234;2022-11-02T10:54:01;16.05;;;3.65;;
47299;SDS011;33036;51.320;17.234;2022-11-02T10:58:02;15.43;;;4.07;;
47299;SDS011;33036;51.320;17.234;2022-11-02T11:02:09;14.77;;;3.70;;
47299;SDS011;33036;51.320;17.234;2022-11-02T11:06:14;8.45;;;3.20;;
47299;SDS011;33036;51.320;17.234;2022-11-02T11:10:16;13.75;;;3.28;;
47299;SDS011;33036;51.320;17.234;2022-11-02T11:14:17;17.58;;;4.07;;
47299;SDS011;33036;51.320;17.234;2022-11-02T11:18:20;11.32;;;3.30;;
47299;SDS011;33036;51.320;17.234;2022-11-02T11:26:27;9.25;;;3.33;;
47299;SDS011;33036;51.320;17.234;2022-11-02T11:30:31;11.93;;;3.15;;
47299;SDS011;33036;51.320;17.234;2022-11-02T11:34:34;10.70;;;3.10;;
47299;SDS011;33036;51.320;17.234;2022-11-02T11:38:36;12.73;;;3.35;;
47299;SDS011;33036;51.320;17.234;2022-11-02T11:42:47;9.77;;;3.10;;
47299;SDS011;33036;51.320;17.234;2022-11-02T11:46:57;11.60;;;3.20;;
47299;SDS011;33036;51.320;17.234;2022-11-02T11:51:17;10.80;;;3.15;;
47299;SDS011;33036;51.320;17.234;2022-11-02T11:55:32;14.38;;;3.85;;
47299;SDS011;33036;51.320;17.234;2022-11-02T12:42:47;12.60;;;3.25;;
47299;SDS011;33036;51.320;17.234;2022-11-02T12:46:58;13.75;;;3.30;;
47299;SDS011;33036;51.320;17.234;2022-11-02T12:51:24;15.40;;;3.78;;
47299;SDS011;33036;51.320;17.234;2022-11-02T12:55:41;13.20;;;3.20;;
47299;SDS011;33036;51.320;17.234;2022-11-02T12:59:45;10.98;;;3.10;;
47299;SDS011;33036;51.320;17.234;2022-11-02T13:08:33;14.77;;;3.67;;
47299;SDS011;33036;51.320;17.234;2022-11-02T13:12:43;13.10;;;2.80;;
47299;SDS011;33036;51.320;17.234;2022-11-02T13:20:52;9.63;;;3.25;;
47299;SDS011;33036;51.320;17.234;2022-11-02T13:24:56;16.08;;;3.40;;
47299;SDS011;33036;51.320;17.234;2022-11-02T13:29:05;19.33;;;3.53;;
47299;SDS011;33036;51.320;17.234;2022-11-02T13:33:35;15.10;;;3.07;;
47299;SDS011;33036;51.320;17.234;2022-11-02T13:37:53;13.80;;;3.67;;
47299;SDS011;33036;51.320;17.234;2022-11-02T13:50:09;14.65;;;4.30;;
47299;SDS011;33036;51.320;17.234;2022-11-02T14:02:44;17.85;;;4.82;;
47299;SDS011;33036;51.320;17.234;2022-11-02T14:07:00;16.55;;;4.47;;
47299;SDS011;33036;51.320;17.234;2022-11-02T14:23:34;18.85;;;4.20;;
47299;SDS011;33036;51.320;17.234;2022-11-02T14:27:36;14.45;;;4.35;;
47299;SDS011;33036;51.320;17.234;2022-11-02T14:31:38;15.15;;;4.47;;
47299;SDS011;33036;51.320;17.234;2022-11-02T14:35:44;19.48;;;4.43;;
47299;SDS011;33036;51.320;17.234;2022-11-02T14:48:18;21.30;;;6.68;;
47299;SDS011;33036;51.320;17.234;2022-11-02T14:52:21;22.60;;;7.53;;
47299;SDS011;33036;51.320;17.234;2022-11-02T14:56:24;22.70;;;7.07;;
47299;SDS011;33036;51.320;17.234;2022-11-02T15:00:58;26.02;;;6.80;;
47299;SDS011;33036;51.320;17.234;2022-11-02T15:05:04;20.38;;;5.15;;
47299;SDS011;33036;51.320;17.234;2022-11-02T15:09:09;13.57;;;4.50;;
47299;SDS011;33036;51.320;17.234;2022-11-02T15:21:24;17.77;;;5.40;;
47299;SDS011;33036;51.320;17.234;2022-11-02T15:25:27;12.68;;;4.57;;
47299;SDS011;33036;51.320;17.234;2022-11-02T15:29:32;16.20;;;5.28;;
47299;SDS011;33036;51.320;17.234;2022-11-02T15:33:51;20.58;;;6.20;;
47299;SDS011;33036;51.320;17.234;2022-11-02T15:37:58;18.60;;;5.35;;
47299;SDS011;33036;51.320;17.234;2022-11-02T15:42:12;16.38;;;5.20;;
47299;SDS011;33036;51.320;17.234;2022-11-02T15:55:05;19.75;;;5.93;;
47299;SDS011;33036;51.320;17.234;2022-11-02T16:03:29;16.13;;;5.15;;
47299;SDS011;33036;51.320;17.234;2022-11-02T16:07:30;19.85;;;6.85;;
47299;SDS011;33036;51.320;17.234;2022-11-02T16:11:31;18.48;;;5.63;;
47299;SDS011;33036;51.320;17.234;2022-11-02T16:15:32;17.60;;;5.55;;
47299;SDS011;33036;51.320;17.234;2022-11-02T16:19:33;13.70;;;5.60;;
47299;SDS011;33036;51.320;17.234;2022-11-02T16:23:38;16.88;;;5.75;;
47299;SDS011;33036;51.320;17.234;2022-11-02T16:27:40;19.50;;;5.40;;
47299;SDS011;33036;51.320;17.234;2022-11-02T16:31:45;20.85;;;7.25;;
47299;SDS011;33036;51.320;17.234;2022-11-02T16:35:46;22.35;;;8.07;;
47299;SDS011;33036;51.320;17.234;2022-11-02T16:39:47;19.02;;;8.18;;
47299;SDS011;33036;51.320;17.234;2022-11-02T16:43:48;21.63;;;8.50;;
47299;SDS011;33036;51.320;17.234;2022-11-02T16:47:49;20.98;;;7.60;;
47299;SDS011;33036;51.320;17.234;2022-11-02T16:51:57;21.17;;;8.27;;
47299;SDS011;33036;51.320;17.234;2022-11-02T16:56:13;21.80;;;8.57;;
47299;SDS011;33036;51.320;17.234;2022-11-02T17:00:26;17.17;;;8.27;;
47299;SDS011;33036;51.320;17.234;2022-11-02T17:04:31;24.80;;;9.43;;
47299;SDS011;33036;51.320;17.234;2022-11-02T17:08:32;22.88;;;10.10;;
47299;SDS011;33036;51.320;17.234;2022-11-02T17:12:40;25.95;;;10.07;;
47299;SDS011;33036;51.320;17.234;2022-11-02T17:17:02;26.13;;;10.07;;
47299;SDS011;33036;51.320;17.234;2022-11-02T17:25:13;27.58;;;12.35;;
47299;SDS011;33036;51.320;17.234;2022-11-02T17:33:27;26.48;;;11.10;;
47299;SDS011;33036;51.320;17.234;2022-11-02T17:37:30;31.08;;;10.75;;
47299;SDS011;33036;51.320;17.234;2022-11-02T17:41:31;26.13;;;11.00;;
47299;SDS011;33036;51.320;17.234;2022-11-02T17:45:54;25.08;;;10.02;;
47299;SDS011;33036;51.320;17.234;2022-11-02T17:49:59;34.38;;;11.38;;
47299;SDS011;33036;51.320;17.234;2022-11-02T17:54:02;23.05;;;10.60;;
47299;SDS011;33036;51.320;17.234;2022-11-02T17:58:04;23.10;;;10.55;;
47299;SDS011;33036;51.320;17.234;2022-11-02T18:02:09;30.35;;;11.18;;
47299;SDS011;33036;51.320;17.234;2022-11-02T18:06:12;28.48;;;10.30;;
47299;SDS011;33036;51.320;17.234;2022-11-02T18:10:13;27.48;;;10.38;;
47299;SDS011;33036;51.320;17.234;2022-11-02T18:14:14;25.23;;;10.38;;
47299;SDS011;33036;51.320;17.234;2022-11-02T18:18:16;22.27;;;8.93;;
47299;SDS011;33036;51.320;17.234;2022-11-02T18:22:17;24.65;;;8.60;;
47299;SDS011;33036;51.320;17.234;2022-11-02T18:26:18;22.73;;;8.43;;
47299;SDS011;33036;51.320;17.234;2022-11-02T18:30:19;22.10;;;9.23;;
47299;SDS011;33036;51.320;17.234;2022-11-02T18:34:20;22.85;;;7.95;;
47299;SDS011;33036;51.320;17.234;2022-11-02T18:38:21;20.50;;;7.00;;
47299;SDS011;33036;51.320;17.234;2022-11-02T18:42:22;19.73;;;6.78;;
47299;SDS011;33036;51.320;17.234;2022-11-02T18:46:24;22.48;;;7.55;;
47299;SDS011;33036;51.320;17.234;2022-11-02T18:50:25;35.45;;;12.98;;
47299;SDS011;33036;51.320;17.234;2022-11-02T18:54:26;17.83;;;6.78;;
47299;SDS011;33036;51.320;17.234;2022-11-02T18:58:27;17.98;;;7.03;;
47299;SDS011;33036;51.320;17.234;2022-11-02T19:02:28;19.60;;;7.95;;
47299;SDS011;33036;51.320;17.234;2022-11-02T19:06:30;20.85;;;7.45;;
47299;SDS011;33036;51.320;17.234;2022-11-02T19:10:50;20.38;;;8.27;;
47299;SDS011;33036;51.320;17.234;2022-11-02T19:14:51;23.67;;;9.25;;
47299;SDS011;33036;51.320;17.234;2022-11-02T19:18:57;22.40;;;9.63;;
47299;SDS011;33036;51.320;17.234;2022-11-02T19:22:59;21.13;;;9.07;;
47299;SDS011;33036;51.320;17.234;2022-11-02T19:27:03;21.65;;;8.82;;
47299;SDS011;33036;51.320;17.234;2022-11-02T19:31:07;33.70;;;10.40;;
47299;SDS011;33036;51.320;17.234;2022-11-02T19:35:09;32.22;;;10.52;;
47299;SDS011;33036;51.320;17.234;2022-11-02T19:39:11;30.25;;;11.98;;
47299;SDS011;33036;51.320;17.234;2022-11-02T19:43:12;31.45;;;11.77;;
47299;SDS011;33036;51.320;17.234;2022-11-02T19:47:14;32.67;;;13.23;;
47299;SDS011;33036;51.320;17.234;2022-11-02T19:51:15;31.80;;;13.48;;
47299;SDS011;33036;51.320;17.234;2022-11-02T19:55:18;33.35;;;13.43;;
47299;SDS011;33036;51.320;17.234;2022-11-02T19:59:22;33.33;;;13.68;;
47299;SDS011;33036;51.320;17.234;2022-11-02T20:03:23;36.92;;;14.65;;
47299;SDS011;33036;51.320;17.234;2022-11-02T20:07:25;34.78;;;15.00;;
47299;SDS011;33036;51.320;17.234;2022-11-02T20:11:27;32.25;;;13.68;;
47299;SDS011;33036;51.320;17.234;2022-11-02T20:15:28;40.83;;;14.68;;
47299;SDS011;33036;51.320;17.234;2022-11-02T20:19:31;34.42;;;13.52;;
47299;SDS011;33036;51.320;17.234;2022-11-02T20:23:35;33.50;;;14.85;;
47299;SDS011;33036;51.320;17.234;2022-11-02T20:27:37;30.05;;;12.50;;
47299;SDS011;33036;51.320;17.234;2022-11-02T20:31:41;33.63;;;12.93;;
47299;SDS011;33036;51.320;17.234;2022-11-02T20:35:47;35.45;;;13.13;;
47299;SDS011;33036;51.320;17.234;2022-11-02T20:39:48;30.20;;;13.20;;
47299;SDS011;33036;51.320;17.234;2022-11-02T20:43:50;26.67;;;11.80;;
47299;SDS011;33036;51.320;17.234;2022-11-02T20:47:52;29.90;;;14.13;;
47299;SDS011;33036;51.320;17.234;2022-11-02T20:51:54;30.60;;;13.85;;
47299;SDS011;33036;51.320;17.234;2022-11-02T20:55:56;31.38;;;13.45;;
47299;SDS011;33036;51.320;17.234;2022-11-02T20:59:58;30.30;;;14.20;;
47299;SDS011;33036;51.320;17.234;2022-11-02T21:03:59;28.55;;;14.15;;
47299;SDS011;33036;51.320;17.234;2022-11-02T21:08:01;32.63;;;13.65;;
47299;SDS011;33036;51.320;17.234;2022-11-02T21:12:01;28.25;;;12.98;;
47299;SDS011;33036;51.320;17.234;2022-11-02T21:16:21;31.00;;;12.93;;
47299;SDS011;33036;51.320;17.234;2022-11-02T21:20:23;34.55;;;13.65;;
47299;SDS011;33036;51.320;17.234;2022-11-02T21:24:24;37.38;;;15.02;;
47299;SDS011;33036;51.320;17.234;2022-11-02T21:28:29;31.10;;;14.20;;
47299;SDS011;33036;51.320;17.234;2022-11-02T21:32:31;26.40;;;13.52;;
47299;SDS011;33036;51.320;17.234;2022-11-02T21:36:32;40.38;;;15.07;;
47299;SDS011;33036;51.320;17.234;2022-11-02T21:40:33;25.30;;;12.57;;
47299;SDS011;33036;51.320;17.234;2022-11-02T21:44:34;35.67;;;12.93;;
47299;SDS011;33036;51.320;17.234;2022-11-02T21:48:35;32.42;;;14.05;;
47299;SDS011;33036;51.320;17.234;2022-11-02T21:52:37;30.40;;;11.90;;
47299;SDS011;33036;51.320;17.234;2022-11-02T21:56:38;26.08;;;11.63;;
47299;SDS011;33036;51.320;17.234;2022-11-02T22:00:39;26.33;;;11.52;;
47299;SDS011;33036;51.320;17.234;2022-11-02T22:04:59;24.20;;;10.85;;
47299;SDS011;33036;51.320;17.234;2022-11-02T22:09:00;29.58;;;11.63;;
47299;SDS011;33036;51.320;17.234;2022-11-02T22:13:01;22.85;;;10.80;;
47299;SDS011;33036;51.320;17.234;2022-11-02T22:17:20;27.73;;;12.30;;
47299;SDS011;33036;51.320;17.234;2022-11-02T22:21:22;31.88;;;11.93;;
47299;SDS011;33036;51.320;17.234;2022-11-02T22:25:23;27.25;;;10.85;;
47299;SDS011;33036;51.320;17.234;2022-11-02T22:29:24;24.85;;;10.48;;
47299;SDS011;33036;51.320;17.234;2022-11-02T22:33:26;26.92;;;10.75;;
47299;SDS011;33036;51.320;17.234;2022-11-02T22:37:27;27.15;;;11.05;;
47299;SDS011;33036;51.320;17.234;2022-11-02T22:41:46;25.27;;;10.80;;
47299;SDS011;33036;51.320;17.234;2022-11-02T22:45:47;24.65;;;9.55;;
47299;SDS011;33036;51.320;17.234;2022-11-02T22:49:48;25.30;;;9.40;;
47299;SDS011;33036;51.320;17.234;2022-11-02T22:53:49;29.15;;;8.10;;
47299;SDS011;33036;51.320;17.234;2022-11-02T22:57:52;18.15;;;7.43;;
47299;SDS011;33036;51.320;17.234;2022-11-02T23:01:53;19.13;;;8.45;;
47299;SDS011;33036;51.320;17.234;2022-11-02T23:05:54;23.27;;;8.95;;
47299;SDS011;33036;51.320;17.234;2022-11-02T23:09:58;22.08;;;7.63;;
47299;SDS011;33036;51.320;17.234;2022-11-02T23:18:06;16.30;;;7.33;;
47299;SDS011;33036;51.320;17.234;2022-11-02T23:22:08;17.40;;;7.47;;
47299;SDS011;33036;51.320;17.234;2022-11-02T23:26:28;17.80;;;7.28;;
47299;SDS011;33036;51.320;17.234;2022-11-02T23:30:30;16.13;;;7.03;;
47299;SDS011;33036;51.320;17.234;2022-11-02T23:34:55;20.58;;;6.95;;
47299;SDS011;33036;51.320;17.234;2022-11-02T23:39:15;17.73;;;7.13;;
47299;SDS011;33036;51.320;17.234;2022-11-02T23:43:34;15.20;;;6.93;;
47299;SDS011;33036;51.320;17.234;2022-11-02T23:47:35;19.52;;;7.32;;
47299;SDS011;33036;51.320;17.234;2022-11-02T23:51:55;21.38;;;7.00;;
47299;SDS011;33036;51.320;17.234;2022-11-02T23:56:15;17.42;;;7.03;;
